createdAt,value
2018-11-14T00:01:19.887Z,9.50
2018-11-14T00:03:48.505Z,9.40
2018-11-14T00:06:17.151Z,9.40
2018-11-14T00:08:45.784Z,9.40
2018-11-14T00:11:14.471Z,9.40
2018-11-14T00:13:43.156Z,9.40
2018-11-14T00:16:11.903Z,9.30
2018-11-14T00:18:40.562Z,9.30
2018-11-14T00:21:09.210Z,9.30
2018-11-14T00:23:37.764Z,9.30
2018-11-14T00:26:06.935Z,9.30
2018-11-14T00:28:35.813Z,9.30
2018-11-14T00:31:04.201Z,9.30
2018-11-14T00:33:32.809Z,9.30
2018-11-14T00:36:01.460Z,9.20
2018-11-14T00:38:30.078Z,9.20
2018-11-14T00:40:58.669Z,9.20
2018-11-14T00:43:27.306Z,9.20
2018-11-14T00:45:55.896Z,9.20
2018-11-14T00:48:24.536Z,9.20
2018-11-14T00:50:53.150Z,9.30
2018-11-14T00:53:21.774Z,9.40
2018-11-14T00:55:50.374Z,9.40
2018-11-14T00:58:18.998Z,9.40
2018-11-14T01:00:47.648Z,9.30
2018-11-14T01:03:16.274Z,9.30
2018-11-14T01:05:44.910Z,9.20
2018-11-14T01:08:13.572Z,9.20
2018-11-14T01:10:42.199Z,9.20
2018-11-14T01:13:10.862Z,9.20
2018-11-14T01:15:39.472Z,9.20
2018-11-14T01:18:08.065Z,9.10
2018-11-14T01:20:36.775Z,9.10
2018-11-14T01:23:06.232Z,9.10
2018-11-14T01:25:34.876Z,9.10
2018-11-14T01:28:04.134Z,9.10
2018-11-14T01:30:32.770Z,9.10
2018-11-14T01:33:01.434Z,9.10
2018-11-14T01:35:30.119Z,9.10
2018-11-14T01:37:58.775Z,9.20
2018-11-14T01:40:27.410Z,9.30
2018-11-14T01:42:57.230Z,9.40
2018-11-14T01:45:26.005Z,9.40
2018-11-14T01:47:54.596Z,9.50
2018-11-14T01:50:23.197Z,9.50
2018-11-14T01:52:51.846Z,9.60
2018-11-14T01:55:21.202Z,9.60
2018-11-14T01:57:50.124Z,9.60
2018-11-14T02:00:21.521Z,9.70
2018-11-14T02:02:50.199Z,9.70
2018-11-14T02:05:18.817Z,9.70
2018-11-14T02:07:47.528Z,9.70
2018-11-14T02:10:17.427Z,9.70
2018-11-14T02:12:46.494Z,9.70
2018-11-14T02:15:18.975Z,9.70
2018-11-14T02:17:49.511Z,9.80
2018-11-14T02:20:18.151Z,9.70
2018-11-14T02:22:47.118Z,9.80
2018-11-14T02:25:16.294Z,9.80
2018-11-14T02:27:44.889Z,9.80
2018-11-14T02:30:15.864Z,9.80
2018-11-14T02:32:44.488Z,9.80
2018-11-14T02:35:13.209Z,9.80
2018-11-14T02:37:43.047Z,9.80
2018-11-14T02:40:13.651Z,9.80
2018-11-14T02:42:42.579Z,9.80
2018-11-14T02:45:11.720Z,9.80
2018-11-14T02:47:40.348Z,9.70
2018-11-14T02:50:13.440Z,9.60
2018-11-14T02:52:42.190Z,9.50
2018-11-14T02:55:12.308Z,9.40
2018-11-14T02:57:41.198Z,9.40
2018-11-14T03:00:14.401Z,9.40
2018-11-14T03:02:43.463Z,9.30
2018-11-14T03:05:12.120Z,9.30
2018-11-14T03:07:40.835Z,9.30
2018-11-14T03:10:11.730Z,9.30
2018-11-14T03:12:40.658Z,9.20
2018-11-14T03:15:12.481Z,9.20
2018-11-14T03:17:41.069Z,9.10
2018-11-14T03:20:12.163Z,9.10
2018-11-14T03:22:40.787Z,9.10
2018-11-14T03:25:10.798Z,9.00
2018-11-14T03:27:39.422Z,9.00
2018-11-14T03:30:11.857Z,8.90
2018-11-14T03:32:41.447Z,8.80
2018-11-14T03:35:10.843Z,8.80
2018-11-14T03:37:39.612Z,8.80
2018-11-14T03:40:10.300Z,8.80
2018-11-14T03:42:39.137Z,8.80
2018-11-14T03:45:09.296Z,8.70
2018-11-14T03:47:38.205Z,8.70
2018-11-14T03:50:07.389Z,8.70
2018-11-14T03:52:36.000Z,8.70
2018-11-14T03:55:04.783Z,8.70
2018-11-14T03:57:33.447Z,8.70
2018-11-14T04:00:02.138Z,8.70
2018-11-14T04:02:30.765Z,8.70
2018-11-14T04:04:59.359Z,8.80
2018-11-14T04:07:28.032Z,8.80
2018-11-14T04:09:56.648Z,8.80
2018-11-14T04:12:25.410Z,8.90
2018-11-14T04:14:54.036Z,8.90
2018-11-14T04:17:22.710Z,8.90
2018-11-14T04:19:51.375Z,8.90
2018-11-14T04:22:19.941Z,8.90
2018-11-14T04:24:48.581Z,8.90
2018-11-14T04:27:17.193Z,8.80
2018-11-14T04:29:45.872Z,8.80
2018-11-14T04:32:14.464Z,8.80
2018-11-14T04:34:43.058Z,8.80
2018-11-14T04:37:11.705Z,8.80
2018-11-14T04:39:40.312Z,8.80
2018-11-14T04:42:08.948Z,8.80
2018-11-14T04:44:37.568Z,8.70
2018-11-14T04:47:06.211Z,8.70
2018-11-14T04:49:34.799Z,8.70
2018-11-14T04:52:03.391Z,8.70
2018-11-14T04:54:31.976Z,8.70
2018-11-14T04:57:00.541Z,8.60
2018-11-14T04:59:29.113Z,8.60
2018-11-14T05:01:57.788Z,8.60
2018-11-14T05:04:26.802Z,8.60
2018-11-14T05:06:55.444Z,8.70
2018-11-14T05:09:24.078Z,8.60
2018-11-14T05:11:52.711Z,8.60
2018-11-14T05:14:21.331Z,8.70
2018-11-14T05:16:49.990Z,8.70
2018-11-14T05:19:18.654Z,8.80
2018-11-14T05:21:47.286Z,8.80
2018-11-14T05:24:16.173Z,8.90
2018-11-14T05:26:45.122Z,8.90
2018-11-14T05:29:13.821Z,8.90
2018-11-14T05:31:42.512Z,9.00
2018-11-14T05:34:11.122Z,9.00
2018-11-14T05:36:39.867Z,9.00
2018-11-14T05:39:10.391Z,9.00
2018-11-14T05:41:39.113Z,9.00
2018-11-14T05:44:07.721Z,9.00
2018-11-14T05:46:36.306Z,9.00
2018-11-14T05:49:05.307Z,9.00
2018-11-14T05:51:33.924Z,9.00
2018-11-14T05:54:02.599Z,9.00
2018-11-14T05:56:31.191Z,9.00
2018-11-14T05:58:59.855Z,9.00
2018-11-14T06:01:28.511Z,9.00
2018-11-14T06:03:57.163Z,9.00
2018-11-14T06:06:25.745Z,9.00
2018-11-14T06:08:54.426Z,9.00
2018-11-14T06:11:23.046Z,9.00
2018-11-14T06:13:51.666Z,9.00
2018-11-14T06:16:20.350Z,9.00
2018-11-14T06:18:48.971Z,9.10
2018-11-14T06:21:17.575Z,9.00
2018-11-14T06:23:46.357Z,9.10
2018-11-14T06:26:14.946Z,9.10
2018-11-14T06:28:43.638Z,9.00
2018-11-14T06:31:12.328Z,9.10
2018-11-14T06:33:40.996Z,9.00
2018-11-14T06:36:09.671Z,9.00
2018-11-14T06:38:38.275Z,9.00
2018-11-14T06:41:06.912Z,8.90
2018-11-14T06:43:35.576Z,8.80
2018-11-14T06:46:04.171Z,8.80
2018-11-14T06:48:32.761Z,8.70
2018-11-14T06:51:01.357Z,8.70
2018-11-14T06:53:29.973Z,8.60
2018-11-14T06:55:58.598Z,8.60
2018-11-14T06:58:27.252Z,8.60
2018-11-14T07:00:55.853Z,8.50
2018-11-14T07:03:24.512Z,8.50
2018-11-14T07:05:53.269Z,8.50
2018-11-14T07:08:21.750Z,8.40
2018-11-14T07:10:50.330Z,8.50
2018-11-14T07:13:18.942Z,8.40
2018-11-14T07:15:47.580Z,8.50
2018-11-14T07:18:16.237Z,8.40
2018-11-14T07:20:45.488Z,8.50
2018-11-14T07:23:14.160Z,8.60
2018-11-14T07:25:42.789Z,8.70
2018-11-14T07:28:11.436Z,8.70
2018-11-14T07:30:40.033Z,8.80
2018-11-14T07:33:10.004Z,8.80
2018-11-14T07:35:38.621Z,8.80
2018-11-14T07:38:41.181Z,8.80
2018-11-14T07:41:13.124Z,8.70
2018-11-14T07:43:42.291Z,8.70
2018-11-14T07:46:11.653Z,8.70
2018-11-14T07:48:40.640Z,8.70
2018-11-14T07:51:09.479Z,8.80
2018-11-14T07:53:38.185Z,8.90
2018-11-14T07:56:06.978Z,9.00
2018-11-14T07:58:35.660Z,9.10
2018-11-14T08:01:04.423Z,9.30
2018-11-14T08:03:33.121Z,9.40
2018-11-14T08:06:01.745Z,9.50
2018-11-14T08:08:30.435Z,9.50
2018-11-14T08:10:58.975Z,9.50
2018-11-14T08:13:28.857Z,9.50
2018-11-14T08:16:01.579Z,9.60
2018-11-14T08:18:30.308Z,9.60
2018-11-14T08:20:59.853Z,9.60
2018-11-14T08:23:28.492Z,9.60
2018-11-14T08:25:57.197Z,9.60
2018-11-14T08:28:25.839Z,9.60
2018-11-14T08:30:54.494Z,9.60
2018-11-14T08:33:23.241Z,9.70
2018-11-14T08:35:51.962Z,9.80
2018-11-14T08:38:20.591Z,9.80
2018-11-14T08:40:49.221Z,9.90
2018-11-14T08:43:17.886Z,9.80
2018-11-14T08:45:46.718Z,9.70
2018-11-14T08:48:15.406Z,9.60
2018-11-14T08:50:44.116Z,9.60
2018-11-14T08:53:12.803Z,9.60
2018-11-14T08:55:41.445Z,9.60
2018-11-14T08:58:11.540Z,9.70
2018-11-14T09:00:40.157Z,9.60
2018-11-14T09:03:12.042Z,9.70
2018-11-14T09:05:40.682Z,9.70
2018-11-14T09:08:09.349Z,9.70
2018-11-14T09:10:37.972Z,9.80
2018-11-14T09:13:10.843Z,9.90
2018-11-14T09:15:39.582Z,10.00
2018-11-14T09:18:08.279Z,10.10
2018-11-14T09:20:36.957Z,10.20
2018-11-14T09:23:06.146Z,10.30
2018-11-14T09:25:34.843Z,10.40
2018-11-14T09:28:04.118Z,10.40
2018-11-14T09:30:32.755Z,10.30
2018-11-14T09:33:01.466Z,10.30
2018-11-14T09:35:30.146Z,10.30
2018-11-14T09:38:00.019Z,10.20
2018-11-14T09:40:29.403Z,10.20
2018-11-14T09:42:58.075Z,10.20
2018-11-14T09:45:27.955Z,10.20
2018-11-14T09:47:56.659Z,10.20
2018-11-14T09:50:28.495Z,10.20
2018-11-14T09:52:58.623Z,10.30
2018-11-14T09:55:27.227Z,10.30
2018-11-14T09:57:55.843Z,10.40
2018-11-14T10:00:32.976Z,10.40
2018-11-14T10:03:11.590Z,10.40
2018-11-14T10:05:40.275Z,10.50
2018-11-14T10:08:15.803Z,10.50
2018-11-14T10:10:45.115Z,10.60
2018-11-14T10:13:13.904Z,10.70
2018-11-14T10:15:42.732Z,10.70
2018-11-14T10:18:13.453Z,10.80
2018-11-14T10:20:42.114Z,10.80
2018-11-14T10:23:10.869Z,10.80
2018-11-14T10:25:39.518Z,10.90
2018-11-14T10:28:08.135Z,11.00
2018-11-14T10:30:36.774Z,11.00
2018-11-14T10:33:05.562Z,11.10
2018-11-14T10:35:34.185Z,11.20
2018-11-14T10:38:02.786Z,11.20
2018-11-14T10:40:31.379Z,11.30
2018-11-14T10:43:00.148Z,11.40
2018-11-14T10:45:28.743Z,11.50
2018-11-14T10:47:57.369Z,11.60
2018-11-14T10:50:27.053Z,11.70
2018-11-14T10:52:55.726Z,11.80
2018-11-14T10:55:24.641Z,11.90
2018-11-14T10:57:53.781Z,12.00
2018-11-14T11:00:30.433Z,12.00
2018-11-14T11:03:05.456Z,12.00
2018-11-14T11:05:44.349Z,12.10
2018-11-14T11:08:19.980Z,12.10
2018-11-14T11:10:53.987Z,12.20
2018-11-14T11:13:27.789Z,12.20
2018-11-14T11:16:01.623Z,12.20
2018-11-14T11:18:34.611Z,12.30
2018-11-14T11:21:03.413Z,12.30
2018-11-14T11:23:32.092Z,12.30
2018-11-14T11:26:00.715Z,12.40
2018-11-14T11:28:29.337Z,12.40
2018-11-14T11:30:57.987Z,12.40
2018-11-14T11:33:26.630Z,12.50
2018-11-14T11:35:55.218Z,12.50
2018-11-14T11:38:23.959Z,12.50
2018-11-14T11:40:52.546Z,12.50
2018-11-14T11:43:21.168Z,12.50
2018-11-14T11:45:49.795Z,12.40
2018-11-14T11:48:18.463Z,12.40
2018-11-14T11:50:47.073Z,12.40
2018-11-14T11:53:15.771Z,12.50
2018-11-14T11:55:44.404Z,12.50
2018-11-14T11:58:13.047Z,12.60
2018-11-14T12:00:41.791Z,12.70
2018-11-14T12:03:10.397Z,12.70
2018-11-14T12:05:39.082Z,12.80
2018-11-14T12:08:07.708Z,12.80
2018-11-14T12:10:36.352Z,12.80
2018-11-14T12:13:05.323Z,12.90
2018-11-14T12:15:33.951Z,13.00
2018-11-14T12:18:02.607Z,13.00
2018-11-14T12:20:31.236Z,13.10
2018-11-14T12:22:59.835Z,13.10
2018-11-14T12:25:28.509Z,13.20
2018-11-14T12:27:57.149Z,13.30
2018-11-14T12:30:25.886Z,13.40
2018-11-14T12:32:54.431Z,13.50
2018-11-14T12:35:23.080Z,13.60
2018-11-14T12:37:51.813Z,13.70
2018-11-14T12:40:20.441Z,13.90
2018-11-14T12:42:49.109Z,14.00
2018-11-14T12:45:17.817Z,14.10
2018-11-14T12:47:46.468Z,14.20
2018-11-14T12:50:15.141Z,14.40
2018-11-14T12:52:43.848Z,14.50
2018-11-14T12:55:13.981Z,14.60
2018-11-14T12:57:42.803Z,14.70
2018-11-14T13:00:13.425Z,14.80
2018-11-14T13:02:42.220Z,15.00
2018-11-14T13:05:12.360Z,15.10
2018-11-14T13:07:41.127Z,15.30
2018-11-14T13:10:11.549Z,15.20
2018-11-14T13:12:40.306Z,15.00
2018-11-14T13:15:10.358Z,15.10
2018-11-14T13:17:39.117Z,15.10
2018-11-14T13:20:10.415Z,15.20
2018-11-14T13:22:39.060Z,15.20
2018-11-14T13:25:09.653Z,15.20
2018-11-14T13:27:38.620Z,15.30
2018-11-14T13:30:10.421Z,15.50
2018-11-14T13:32:39.206Z,15.80
2018-11-14T13:35:10.598Z,16.20
2018-11-14T13:37:39.309Z,17.40
2018-11-14T13:40:09.015Z,18.70
2018-11-14T13:42:37.817Z,19.20
2018-11-14T13:45:08.138Z,19.70
2018-11-14T13:47:37.426Z,20.90
2018-11-14T13:50:08.940Z,21.80
2018-11-14T13:52:37.655Z,21.70
2018-11-14T13:55:07.835Z,21.00
2018-11-14T13:57:36.531Z,20.30
2018-11-14T14:00:07.222Z,20.50
2018-11-14T14:02:35.934Z,20.90
2018-11-14T14:05:05.167Z,21.30
2018-11-14T14:07:33.853Z,20.90
2018-11-14T14:10:02.541Z,20.40
2018-11-14T14:12:31.228Z,19.30
2018-11-14T14:14:59.935Z,18.00
2018-11-14T14:17:28.673Z,17.10
2018-11-14T14:19:57.384Z,16.50
2018-11-14T14:22:26.082Z,16.10
2018-11-14T14:24:54.864Z,15.90
2018-11-14T14:27:23.520Z,15.70
2018-11-14T14:29:52.165Z,15.70
2018-11-14T14:32:20.914Z,15.50
2018-11-14T14:34:49.596Z,15.40
2018-11-14T14:37:18.298Z,15.30
2018-11-14T14:39:46.963Z,15.10
2018-11-14T14:42:15.591Z,15.00
2018-11-14T14:44:44.256Z,14.90
2018-11-14T14:47:13.016Z,14.70
2018-11-14T14:49:41.693Z,14.60
2018-11-14T14:52:10.407Z,14.50
2018-11-14T14:54:39.044Z,14.50
2018-11-14T14:57:07.838Z,14.40
2018-11-14T14:59:36.535Z,14.40
2018-11-14T15:02:05.811Z,14.30
2018-11-14T15:04:34.551Z,14.20
2018-11-14T15:07:03.437Z,14.20
2018-11-14T15:09:32.378Z,14.10
2018-11-14T15:12:01.133Z,14.00
2018-11-14T15:14:29.950Z,14.00
2018-11-14T15:16:58.733Z,13.90
2018-11-14T15:19:27.565Z,13.90
2018-11-14T15:21:56.233Z,13.80
2018-11-14T15:24:24.924Z,13.70
2018-11-14T15:26:53.662Z,13.70
2018-11-14T15:29:22.351Z,13.60
2018-11-14T15:31:51.057Z,13.60
2018-11-14T15:34:19.730Z,13.50
2018-11-14T15:36:48.454Z,13.40
2018-11-14T15:39:17.288Z,13.40
2018-11-14T15:41:46.046Z,13.30
2018-11-14T15:44:14.760Z,13.30
2018-11-14T15:46:43.597Z,13.20
2018-11-14T15:49:12.499Z,13.20
2018-11-14T15:51:41.265Z,13.10
2018-11-14T15:54:09.890Z,13.10
2018-11-14T15:56:38.574Z,13.00
2018-11-14T15:59:07.332Z,12.90
2018-11-14T16:01:36.013Z,12.90
2018-11-14T16:04:05.047Z,12.80
2018-11-14T16:06:33.715Z,12.80
2018-11-14T16:09:02.415Z,12.80
2018-11-14T16:11:31.054Z,12.80
2018-11-14T16:14:00.829Z,12.80
2018-11-14T16:16:29.522Z,12.80
2018-11-14T16:18:58.342Z,12.80
2018-11-14T16:21:27.003Z,12.80
2018-11-14T16:23:55.662Z,12.80
2018-11-14T16:26:24.364Z,12.70
2018-11-14T16:28:53.005Z,12.70
2018-11-14T16:31:21.735Z,12.60
2018-11-14T16:33:50.364Z,12.60
2018-11-14T16:36:19.010Z,12.60
2018-11-14T16:38:47.669Z,12.60
2018-11-14T16:41:16.351Z,12.60
2018-11-14T16:43:45.064Z,12.60
2018-11-14T16:46:13.750Z,12.60
2018-11-14T16:48:42.384Z,12.60
2018-11-14T16:51:11.056Z,12.70
2018-11-14T16:53:39.682Z,12.60
2018-11-14T16:56:08.349Z,12.60
2018-11-14T16:58:37.011Z,12.60
2018-11-14T17:01:05.840Z,12.70
2018-11-14T17:03:34.535Z,12.70
2018-11-14T17:06:03.183Z,12.70
2018-11-14T17:08:31.832Z,12.70
2018-11-14T17:11:00.478Z,12.60
2018-11-14T17:13:29.268Z,12.60
2018-11-14T17:15:57.955Z,12.60
2018-11-14T17:18:26.639Z,12.60
2018-11-14T17:20:55.343Z,12.60
2018-11-14T17:23:24.077Z,12.50
2018-11-14T17:25:52.787Z,12.40
2018-11-14T17:28:21.440Z,12.30
2018-11-14T17:30:50.195Z,12.20
2018-11-14T17:33:18.852Z,12.20
2018-11-14T17:35:47.556Z,12.10
2018-11-14T17:38:16.190Z,12.10
2018-11-14T17:40:45.073Z,11.90
2018-11-14T17:43:13.750Z,11.90
2018-11-14T17:45:42.422Z,11.90
2018-11-14T17:48:11.108Z,11.90
2018-11-14T17:50:39.896Z,11.80
2018-11-14T17:53:08.631Z,11.70
2018-11-14T17:55:37.371Z,11.70
2018-11-14T17:58:06.184Z,11.70
2018-11-14T18:00:34.860Z,11.60
2018-11-14T18:03:03.667Z,11.60
2018-11-14T18:05:32.651Z,11.60
2018-11-14T18:08:01.412Z,11.60
2018-11-14T18:10:31.066Z,11.50
2018-11-14T18:13:00.800Z,11.50
2018-11-14T18:15:29.638Z,11.50
2018-11-14T18:17:58.708Z,11.40
2018-11-14T18:20:29.845Z,11.40
2018-11-14T18:22:58.749Z,11.40
2018-11-14T18:25:27.598Z,11.40
2018-11-14T18:27:56.838Z,11.40
2018-11-14T18:30:26.652Z,11.40
2018-11-14T18:32:56.331Z,11.30
2018-11-14T18:35:25.790Z,11.30
2018-11-14T18:37:55.244Z,11.30
2018-11-14T18:40:25.412Z,11.20
2018-11-14T18:42:54.159Z,11.20
2018-11-14T18:45:28.360Z,11.20
2018-11-14T18:47:57.747Z,11.20
2018-11-14T18:50:27.361Z,11.10
2018-11-14T18:52:56.014Z,11.00
2018-11-14T18:55:29.059Z,11.00
2018-11-14T18:57:58.536Z,11.00
2018-11-14T19:00:28.922Z,11.00
2018-11-14T19:02:57.854Z,11.00
2018-11-14T19:05:26.890Z,11.00
2018-11-14T19:07:55.657Z,11.00
2018-11-14T19:10:25.975Z,10.90
2018-11-14T19:12:54.908Z,10.90
2018-11-14T19:15:24.719Z,10.80
2018-11-14T19:17:53.611Z,10.80
2018-11-14T19:20:23.776Z,10.80
2018-11-14T19:22:53.050Z,10.70
2018-11-14T19:25:23.379Z,10.70
2018-11-14T19:27:52.313Z,10.70
2018-11-14T19:30:23.261Z,10.70
2018-11-14T19:32:52.863Z,10.70
2018-11-14T19:35:21.864Z,10.60
2018-11-14T19:37:51.636Z,10.60
2018-11-14T19:40:22.512Z,10.60
2018-11-14T19:42:52.838Z,10.60
2018-11-14T19:45:23.855Z,10.50
2018-11-14T19:47:52.721Z,10.50
2018-11-14T19:50:22.249Z,10.40
2018-11-14T19:52:51.447Z,10.40
2018-11-14T19:55:21.750Z,10.30
2018-11-14T19:57:51.861Z,10.30
2018-11-14T20:00:24.052Z,10.20
2018-11-14T20:02:53.809Z,10.20
2018-11-14T20:05:23.563Z,10.10
2018-11-14T20:07:52.321Z,10.10
2018-11-14T20:10:24.198Z,10.10
2018-11-14T20:12:53.318Z,10.00
2018-11-14T20:15:24.255Z,10.00
2018-11-14T20:17:53.045Z,10.00
2018-11-14T20:20:23.313Z,10.00
2018-11-14T20:22:52.042Z,9.90
2018-11-14T20:25:20.858Z,9.90
2018-11-14T20:27:49.529Z,9.90
2018-11-14T20:30:24.552Z,9.80
2018-11-14T20:32:55.666Z,9.80
2018-11-14T20:35:25.239Z,9.80
2018-11-14T20:37:54.249Z,9.80
2018-11-14T20:40:23.447Z,9.70
2018-11-14T20:42:52.954Z,9.70
2018-11-14T20:45:24.035Z,9.70
2018-11-14T20:47:52.992Z,9.70
2018-11-14T20:50:22.914Z,9.70
2018-11-14T20:52:53.178Z,9.60
2018-11-14T20:55:21.834Z,9.70
2018-11-14T20:57:50.567Z,9.60
2018-11-14T21:00:29.465Z,9.60
2018-11-14T21:02:58.291Z,9.60
2018-11-14T21:05:27.566Z,9.60
2018-11-14T21:07:56.446Z,9.60
2018-11-14T21:10:26.653Z,9.50
2018-11-14T21:12:55.615Z,9.50
2018-11-14T21:15:25.810Z,9.60
2018-11-14T21:17:55.198Z,9.50
2018-11-14T21:20:23.962Z,9.60
2018-11-14T21:22:52.687Z,9.50
2018-11-14T21:25:22.352Z,9.50
2018-11-14T21:27:51.535Z,9.50
2018-11-14T21:30:21.508Z,9.50
2018-11-14T21:32:50.203Z,9.50
2018-11-14T21:35:21.313Z,9.50
2018-11-14T21:37:51.527Z,9.50
2018-11-14T21:40:20.294Z,9.50
2018-11-14T21:42:49.035Z,9.40
2018-11-14T21:45:19.185Z,9.50
2018-11-14T21:47:53.941Z,9.40
2018-11-14T21:50:23.882Z,9.40
2018-11-14T21:52:52.533Z,9.40
2018-11-14T21:55:21.254Z,9.40
2018-11-14T21:57:52.149Z,9.40
2018-11-14T22:00:26.141Z,9.40
2018-11-14T22:02:55.982Z,9.40
2018-11-14T22:05:24.695Z,9.30
2018-11-14T22:07:53.327Z,9.30
2018-11-14T22:10:23.130Z,9.30
2018-11-14T22:12:52.210Z,9.30
2018-11-14T22:15:22.155Z,9.30
2018-11-14T22:17:50.848Z,9.20
2018-11-14T22:20:20.793Z,9.20
2018-11-14T22:22:49.734Z,9.20
2018-11-14T22:25:19.948Z,9.20
2018-11-14T22:27:49.034Z,9.20
2018-11-14T22:30:21.102Z,9.10
2018-11-14T22:32:49.964Z,9.10
2018-11-14T22:35:19.919Z,9.00
2018-11-14T22:37:48.534Z,9.00
2018-11-14T22:40:18.639Z,9.00
2018-11-14T22:42:47.691Z,9.00
2018-11-14T22:45:18.177Z,9.00
2018-11-14T22:47:47.239Z,9.00
2018-11-14T22:50:18.211Z,9.00
2018-11-14T22:52:47.239Z,8.90
2018-11-14T22:55:17.039Z,8.90
2018-11-14T22:57:47.368Z,8.90
2018-11-14T23:00:22.364Z,8.90
2018-11-14T23:02:53.082Z,8.80
2018-11-14T23:05:21.754Z,8.80
2018-11-14T23:07:51.478Z,8.80
2018-11-14T23:10:21.090Z,8.80
2018-11-14T23:12:49.956Z,8.80
2018-11-14T23:15:19.467Z,8.70
2018-11-14T23:17:48.232Z,8.70
2018-11-14T23:20:17.363Z,8.70
2018-11-14T23:22:46.856Z,8.70
2018-11-14T23:25:15.895Z,8.60
2018-11-14T23:27:45.794Z,8.60
2018-11-14T23:30:15.450Z,8.60
2018-11-14T23:32:45.210Z,8.60
2018-11-14T23:35:24.325Z,8.50
2018-11-14T23:37:54.259Z,8.50
2018-11-14T23:40:23.009Z,8.50
2018-11-14T23:42:51.653Z,8.40
2018-11-14T23:45:21.303Z,8.40
2018-11-14T23:47:50.336Z,8.40
2018-11-14T23:50:20.259Z,8.40
2018-11-14T23:52:50.010Z,8.30
2018-11-14T23:55:19.349Z,8.30
2018-11-14T23:57:48.028Z,8.20
